sensor_id;sensor_type;location;lat;lon;timestamp;pressure;altitude;pressure_sealevel;temperature;humidity
23229;BME280;11783;50.350;6.576;2024-02-26T00:00:29;94225.88;;;4.82;100.00
23229;BME280;11783;50.350;6.576;2024-02-26T00:02:55;94226.19;;;4.85;100.00
23229;BME280;11783;50.350;6.576;2024-02-26T00:05:21;94238.81;;;4.83;100.00
23229;BME280;11783;50.350;6.576;2024-02-26T00:07:46;94235.63;;;4.81;100.00
23229;BME280;11783;50.350;6.576;2024-02-26T00:10:13;94236.13;;;4.78;100.00
23229;BME280;11783;50.350;6.576;2024-02-26T00:12:38;94238.84;;;4.94;100.00
23229;BME280;11783;50.350;6.576;2024-02-26T00:15:05;94235.13;;;4.84;100.00
23229;BME280;11783;50.350;6.576;2024-02-26T00:17:31;94239.38;;;4.96;100.00
23229;BME280;11783;50.350;6.576;2024-02-26T00:19:56;94246.19;;;4.86;100.00
23229;BME280;11783;50.350;6.576;2024-02-26T00:22:22;94246.22;;;4.92;100.00
23229;BME280;11783;50.350;6.576;2024-02-26T00:24:47;94249.81;;;4.80;100.00
23229;BME280;11783;50.350;6.576;2024-02-26T00:27:12;94240.09;;;4.81;100.00
23229;BME280;11783;50.350;6.576;2024-02-26T00:29:38;94247.19;;;4.80;100.00
23229;BME280;11783;50.350;6.576;2024-02-26T00:32:03;94245.09;;;4.82;100.00
23229;BME280;11783;50.350;6.576;2024-02-26T00:34:29;94246.66;;;4.78;100.00
23229;BME280;11783;50.350;6.576;2024-02-26T00:36:54;94235.09;;;4.79;100.00
23229;BME280;11783;50.350;6.576;2024-02-26T00:39:20;94235.69;;;4.92;100.00
23229;BME280;11783;50.350;6.576;2024-02-26T00:41:45;94242.53;;;4.93;100.00
23229;BME280;11783;50.350;6.576;2024-02-26T00:44:10;94244.63;;;4.85;100.00
23229;BME280;11783;50.350;6.576;2024-02-26T00:46:36;94238.34;;;4.97;100.00
23229;BME280;11783;50.350;6.576;2024-02-26T00:49:02;94242.53;;;4.98;100.00
23229;BME280;11783;50.350;6.576;2024-02-26T00:51:28;94241.69;;;4.82;100.00
23229;BME280;11783;50.350;6.576;2024-02-26T00:53:54;94243.06;;;4.95;100.00
23229;BME280;11783;50.350;6.576;2024-02-26T00:56:19;94251.03;;;5.05;100.00
23229;BME280;11783;50.350;6.576;2024-02-26T00:58:44;94243.59;;;4.97;100.00
23229;BME280;11783;50.350;6.576;2024-02-26T01:01:10;94258.56;;;4.86;100.00
23229;BME280;11783;50.350;6.576;2024-02-26T01:03:35;94251.97;;;4.83;100.00
23229;BME280;11783;50.350;6.576;2024-02-26T01:06:00;94255.41;;;4.89;100.00
23229;BME280;11783;50.350;6.576;2024-02-26T01:08:26;94257.97;;;4.79;100.00
23229;BME280;11783;50.350;6.576;2024-02-26T01:10:51;94252.97;;;4.77;100.00
23229;BME280;11783;50.350;6.576;2024-02-26T01:13:16;94249.38;;;4.89;100.00
23229;BME280;11783;50.350;6.576;2024-02-26T01:15:42;94238.50;;;4.80;100.00
23229;BME280;11783;50.350;6.576;2024-02-26T01:18:09;94245.84;;;4.73;100.00
23229;BME280;11783;50.350;6.576;2024-02-26T01:20:34;94241.41;;;4.78;100.00
23229;BME280;11783;50.350;6.576;2024-02-26T01:22:59;94239.31;;;4.80;100.00
23229;BME280;11783;50.350;6.576;2024-02-26T01:25:25;94241.13;;;4.75;100.00
23229;BME280;11783;50.350;6.576;2024-02-26T01:27:50;94237.88;;;4.63;100.00
23229;BME280;11783;50.350;6.576;2024-02-26T01:30:15;94241.34;;;4.68;100.00
23229;BME280;11783;50.350;6.576;2024-02-26T01:32:42;94229.81;;;4.74;100.00
23229;BME280;11783;50.350;6.576;2024-02-26T01:35:08;94238.88;;;4.51;100.00
23229;BME280;11783;50.350;6.576;2024-02-26T01:37:35;94233.72;;;4.67;100.00
23229;BME280;11783;50.350;6.576;2024-02-26T01:40:01;94236.09;;;4.68;100.00
23229;BME280;11783;50.350;6.576;2024-02-26T01:42:29;94244.72;;;4.64;100.00
23229;BME280;11783;50.350;6.576;2024-02-26T01:44:54;94250.84;;;4.69;100.00
23229;BME280;11783;50.350;6.576;2024-02-26T01:47:20;94238.97;;;4.67;100.00
23229;BME280;11783;50.350;6.576;2024-02-26T01:49:45;94251.03;;;4.63;100.00
23229;BME280;11783;50.350;6.576;2024-02-26T01:52:11;94248.41;;;4.63;100.00
23229;BME280;11783;50.350;6.576;2024-02-26T01:54:37;94237.84;;;4.52;100.00
23229;BME280;11783;50.350;6.576;2024-02-26T01:57:04;94243.09;;;4.52;100.00
23229;BME280;11783;50.350;6.576;2024-02-26T01:59:30;94247.06;;;4.60;100.00
23229;BME280;11783;50.350;6.576;2024-02-26T02:01:58;94247.63;;;4.62;100.00
23229;BME280;11783;50.350;6.576;2024-02-26T02:04:24;94243.47;;;4.66;100.00
23229;BME280;11783;50.350;6.576;2024-02-26T02:06:50;94247.72;;;4.77;100.00
23229;BME280;11783;50.350;6.576;2024-02-26T02:09:16;94246.09;;;4.71;100.00
23229;BME280;11783;50.350;6.576;2024-02-26T02:11:41;94256.03;;;4.64;100.00
23229;BME280;11783;50.350;6.576;2024-02-26T02:14:07;94240.34;;;4.74;100.00
23229;BME280;11783;50.350;6.576;2024-02-26T02:16:32;94248.75;;;4.71;100.00
23229;BME280;11783;50.350;6.576;2024-02-26T02:18:58;94240.06;;;4.71;100.00
23229;BME280;11783;50.350;6.576;2024-02-26T02:21:24;94239.16;;;4.55;100.00
23229;BME280;11783;50.350;6.576;2024-02-26T02:23:49;94235.00;;;4.64;100.00
23229;BME280;11783;50.350;6.576;2024-02-26T02:26:15;94243.34;;;4.51;100.00
23229;BME280;11783;50.350;6.576;2024-02-26T02:28:41;94240.50;;;4.57;100.00
23229;BME280;11783;50.350;6.576;2024-02-26T02:31:07;94242.34;;;4.62;100.00
23229;BME280;11783;50.350;6.576;2024-02-26T02:33:34;94238.13;;;4.61;100.00
23229;BME280;11783;50.350;6.576;2024-02-26T02:35:59;94237.09;;;4.62;100.00
23229;BME280;11783;50.350;6.576;2024-02-26T02:38:25;94228.66;;;4.55;100.00
23229;BME280;11783;50.350;6.576;2024-02-26T02:40:51;94228.91;;;4.53;100.00
23229;BME280;11783;50.350;6.576;2024-02-26T02:43:17;94224.97;;;4.56;100.00
23229;BME280;11783;50.350;6.576;2024-02-26T02:45:42;94220.75;;;4.55;100.00
23229;BME280;11783;50.350;6.576;2024-02-26T02:48:08;94223.41;;;4.60;100.00
23229;BME280;11783;50.350;6.576;2024-02-26T02:50:33;94212.31;;;4.53;100.00
23229;BME280;11783;50.350;6.576;2024-02-26T02:52:58;94224.59;;;4.42;100.00
23229;BME280;11783;50.350;6.576;2024-02-26T02:55:24;94224.34;;;4.44;100.00
23229;BME280;11783;50.350;6.576;2024-02-26T02:57:50;94221.44;;;4.40;100.00
23229;BME280;11783;50.350;6.576;2024-02-26T03:00:16;94216.94;;;4.36;100.00
23229;BME280;11783;50.350;6.576;2024-02-26T03:02:41;94211.19;;;4.39;100.00
23229;BME280;11783;50.350;6.576;2024-02-26T03:05:08;94213.34;;;4.47;100.00
23229;BME280;11783;50.350;6.576;2024-02-26T03:07:33;94214.69;;;4.54;100.00
23229;BME280;11783;50.350;6.576;2024-02-26T03:09:59;94209.66;;;4.48;100.00
23229;BME280;11783;50.350;6.576;2024-02-26T03:12:24;94212.00;;;4.44;100.00
23229;BME280;11783;50.350;6.576;2024-02-26T03:14:49;94217.03;;;4.51;100.00
23229;BME280;11783;50.350;6.576;2024-02-26T03:17:15;94222.78;;;4.43;100.00
23229;BME280;11783;50.350;6.576;2024-02-26T03:19:40;94206.72;;;4.39;100.00
23229;BME280;11783;50.350;6.576;2024-02-26T03:22:06;94220.38;;;4.36;100.00
23229;BME280;11783;50.350;6.576;2024-02-26T03:24:32;94218.41;;;4.21;100.00
23229;BME280;11783;50.350;6.576;2024-02-26T03:26:57;94213.69;;;4.23;100.00
23229;BME280;11783;50.350;6.576;2024-02-26T03:29:22;94215.81;;;4.26;100.00
23229;BME280;11783;50.350;6.576;2024-02-26T03:31:48;94222.31;;;4.14;100.00
23229;BME280;11783;50.350;6.576;2024-02-26T03:34:13;94216.28;;;4.18;100.00
23229;BME280;11783;50.350;6.576;2024-02-26T03:36:40;94215.72;;;4.11;100.00
23229;BME280;11783;50.350;6.576;2024-02-26T03:39:06;94212.59;;;4.14;100.00
23229;BME280;11783;50.350;6.576;2024-02-26T03:41:33;94218.13;;;4.18;100.00
23229;BME280;11783;50.350;6.576;2024-02-26T03:43:58;94222.56;;;4.12;100.00
23229;BME280;11783;50.350;6.576;2024-02-26T03:46:24;94225.78;;;4.19;100.00
23229;BME280;11783;50.350;6.576;2024-02-26T03:48:49;94229.91;;;4.10;100.00
23229;BME280;11783;50.350;6.576;2024-02-26T03:51:15;94228.09;;;4.11;100.00
23229;BME280;11783;50.350;6.576;2024-02-26T03:53:40;94218.38;;;4.16;100.00
23229;BME280;11783;50.350;6.576;2024-02-26T03:56:06;94214.97;;;4.16;100.00
23229;BME280;11783;50.350;6.576;2024-02-26T03:58:32;94221.00;;;4.11;100.00
23229;BME280;11783;50.350;6.576;2024-02-26T04:00:57;94216.28;;;4.18;100.00
23229;BME280;11783;50.350;6.576;2024-02-26T04:03:22;94215.72;;;4.11;100.00
23229;BME280;11783;50.350;6.576;2024-02-26T04:05:48;94213.16;;;4.21;100.00
23229;BME280;11783;50.350;6.576;2024-02-26T04:08:13;94213.16;;;4.21;100.00
23229;BME280;11783;50.350;6.576;2024-02-26T04:10:38;94209.28;;;4.29;100.00
23229;BME280;11783;50.350;6.576;2024-02-26T04:13:05;94209.06;;;4.36;100.00
23229;BME280;11783;50.350;6.576;2024-02-26T04:15:31;94213.00;;;4.38;100.00
23229;BME280;11783;50.350;6.576;2024-02-26T04:17:57;94204.75;;;4.24;100.00
23229;BME280;11783;50.350;6.576;2024-02-26T04:20:22;94198.78;;;4.34;100.00
23229;BME280;11783;50.350;6.576;2024-02-26T04:22:47;94206.06;;;4.22;100.00
23229;BME280;11783;50.350;6.576;2024-02-26T04:25:13;94216.38;;;4.29;100.00
23229;BME280;11783;50.350;6.576;2024-02-26T04:27:38;94212.63;;;4.19;100.00
23229;BME280;11783;50.350;6.576;2024-02-26T04:30:05;94210.53;;;4.21;100.00
23229;BME280;11783;50.350;6.576;2024-02-26T04:32:31;94210.03;;;4.24;100.00
23229;BME280;11783;50.350;6.576;2024-02-26T04:34:56;94220.25;;;4.21;100.00
23229;BME280;11783;50.350;6.576;2024-02-26T04:37:22;94215.28;;;4.24;100.00
23229;BME280;11783;50.350;6.576;2024-02-26T04:39:47;94227.88;;;4.22;100.00
23229;BME280;11783;50.350;6.576;2024-02-26T04:42:13;94226.56;;;4.20;100.00
23229;BME280;11783;50.350;6.576;2024-02-26T04:44:39;94226.00;;;4.13;100.00
23229;BME280;11783;50.350;6.576;2024-02-26T04:47:04;94231.00;;;4.14;100.00
23229;BME280;11783;50.350;6.576;2024-02-26T04:49:30;94237.06;;;4.20;100.00
23229;BME280;11783;50.350;6.576;2024-02-26T04:51:55;94233.34;;;4.11;100.00
23229;BME280;11783;50.350;6.576;2024-02-26T04:54:20;94234.97;;;4.22;100.00
23229;BME280;11783;50.350;6.576;2024-02-26T04:56:46;94230.31;;;4.29;100.00
23229;BME280;11783;50.350;6.576;2024-02-26T04:59:11;94237.25;;;4.08;100.00
23229;BME280;11783;50.350;6.576;2024-02-26T05:01:37;94240.00;;;4.23;100.00
23229;BME280;11783;50.350;6.576;2024-02-26T05:04:02;94232.72;;;4.36;100.00
23229;BME280;11783;50.350;6.576;2024-02-26T05:06:28;94233.22;;;4.33;100.00
23229;BME280;11783;50.350;6.576;2024-02-26T05:08:54;94221.13;;;4.32;100.00
23229;BME280;11783;50.350;6.576;2024-02-26T05:11:19;94222.72;;;4.33;100.00
23229;BME280;11783;50.350;6.576;2024-02-26T05:13:44;94218.25;;;4.33;100.00
23229;BME280;11783;50.350;6.576;2024-02-26T05:16:10;94223.81;;;4.42;100.00
23229;BME280;11783;50.350;6.576;2024-02-26T05:18:36;94227.69;;;4.29;100.00
23229;BME280;11783;50.350;6.576;2024-02-26T05:21:01;94225.78;;;4.24;100.00
23229;BME280;11783;50.350;6.576;2024-02-26T05:23:28;94234.19;;;4.21;100.00
23229;BME280;11783;50.350;6.576;2024-02-26T05:25:54;94228.25;;;4.36;100.00
23229;BME280;11783;50.350;6.576;2024-02-26T05:28:19;94231.69;;;4.42;100.00
23229;BME280;11783;50.350;6.576;2024-02-26T05:30:45;94234.41;;;4.52;100.00
23229;BME280;11783;50.350;6.576;2024-02-26T05:33:11;94226.50;;;4.47;100.00
23229;BME280;11783;50.350;6.576;2024-02-26T05:35:37;94243.28;;;4.41;100.00
23229;BME280;11783;50.350;6.576;2024-02-26T05:38:02;94246.63;;;4.31;100.00
23229;BME280;11783;50.350;6.576;2024-02-26T05:40:28;94253.25;;;4.39;100.00
23229;BME280;11783;50.350;6.576;2024-02-26T05:42:55;94243.81;;;4.43;100.00
23229;BME280;11783;50.350;6.576;2024-02-26T05:45:20;94249.81;;;4.33;100.00
23229;BME280;11783;50.350;6.576;2024-02-26T05:47:47;94254.53;;;4.31;100.00
23229;BME280;11783;50.350;6.576;2024-02-26T05:50:12;94251.91;;;4.31;100.00
23229;BME280;11783;50.350;6.576;2024-02-26T05:52:38;94256.16;;;4.42;100.00
23229;BME280;11783;50.350;6.576;2024-02-26T05:55:04;94256.16;;;4.42;100.00
23229;BME280;11783;50.350;6.576;2024-02-26T05:57:31;94255.91;;;4.44;100.00
23229;BME280;11783;50.350;6.576;2024-02-26T05:59:56;94259.94;;;4.51;100.00
23229;BME280;11783;50.350;6.576;2024-02-26T06:02:22;94259.78;;;4.31;100.00
23229;BME280;11783;50.350;6.576;2024-02-26T06:04:47;94254.81;;;4.35;100.00
23229;BME280;11783;50.350;6.576;2024-02-26T06:07:13;94257.28;;;4.46;100.00
23229;BME280;11783;50.350;6.576;2024-02-26T06:09:38;94267.53;;;4.48;100.00
23229;BME280;11783;50.350;6.576;2024-02-26T06:12:05;94267.41;;;4.33;100.00
23229;BME280;11783;50.350;6.576;2024-02-26T06:14:30;94269.53;;;4.36;100.00
23229;BME280;11783;50.350;6.576;2024-02-26T06:16:55;94277.50;;;4.46;100.00
23229;BME280;11783;50.350;6.576;2024-02-26T06:19:21;94281.09;;;4.35;100.00
23229;BME280;11783;50.350;6.576;2024-02-26T06:21:46;94280.88;;;4.41;100.00
23229;BME280;11783;50.350;6.576;2024-02-26T06:24:12;94284.56;;;4.40;100.00
23229;BME280;11783;50.350;6.576;2024-02-26T06:26:37;94285.38;;;4.46;100.00
23229;BME280;11783;50.350;6.576;2024-02-26T06:29:02;94281.47;;;4.48;100.00
23229;BME280;11783;50.350;6.576;2024-02-26T06:31:28;94299.38;;;4.51;100.00
23229;BME280;11783;50.350;6.576;2024-02-26T06:33:54;94297.56;;;4.57;100.00
23229;BME280;11783;50.350;6.576;2024-02-26T06:36:20;94302.22;;;4.45;100.00
23229;BME280;11783;50.350;6.576;2024-02-26T06:38:46;94304.38;;;4.48;100.00
23229;BME280;11783;50.350;6.576;2024-02-26T06:41:11;94305.19;;;4.53;100.00
23229;BME280;11783;50.350;6.576;2024-02-26T06:43:36;94308.72;;;4.69;100.00
23229;BME280;11783;50.350;6.576;2024-02-26T06:46:02;94316.34;;;4.66;100.00
23229;BME280;11783;50.350;6.576;2024-02-26T06:48:27;94314.97;;;4.63;100.00
23229;BME280;11783;50.350;6.576;2024-02-26T06:50:53;94317.06;;;4.61;100.00
23229;BME280;11783;50.350;6.576;2024-02-26T06:53:18;94325.47;;;4.58;100.00
23229;BME280;11783;50.350;6.576;2024-02-26T06:55:44;94319.41;;;4.57;100.00
23229;BME280;11783;50.350;6.576;2024-02-26T06:58:09;94326.53;;;4.62;100.00
23229;BME280;11783;50.350;6.576;2024-02-26T07:00:35;94330.03;;;4.68;100.00
23229;BME280;11783;50.350;6.576;2024-02-26T07:03:00;94326.09;;;4.70;100.00
23229;BME280;11783;50.350;6.576;2024-02-26T07:05:27;94330.03;;;4.68;100.00
23229;BME280;11783;50.350;6.576;2024-02-26T07:07:52;94338.22;;;4.71;100.00
23229;BME280;11783;50.350;6.576;2024-02-26T07:10:18;94347.19;;;4.75;100.00
23229;BME280;11783;50.350;6.576;2024-02-26T07:12:43;94348.38;;;4.63;100.00
23229;BME280;11783;50.350;6.576;2024-02-26T07:15:09;94350.56;;;4.71;100.00
23229;BME280;11783;50.350;6.576;2024-02-26T07:17:35;94351.91;;;4.73;100.00
23229;BME280;11783;50.350;6.576;2024-02-26T07:20:00;94349.13;;;4.53;100.00
23229;BME280;11783;50.350;6.576;2024-02-26T07:22:26;94355.00;;;4.65;100.00
23229;BME280;11783;50.350;6.576;2024-02-26T07:24:51;94360.38;;;4.80;100.00
23229;BME280;11783;50.350;6.576;2024-02-26T07:27:18;94359.38;;;4.86;100.00
23229;BME280;11783;50.350;6.576;2024-02-26T07:29:44;94360.06;;;4.77;100.00
23229;BME280;11783;50.350;6.576;2024-02-26T07:32:09;94367.16;;;4.71;100.00
23229;BME280;11783;50.350;6.576;2024-02-26T07:34:35;94367.22;;;4.81;100.00
23229;BME280;11783;50.350;6.576;2024-02-26T07:37:02;94366.50;;;4.59;100.00
23229;BME280;11783;50.350;6.576;2024-02-26T07:39:28;94369.38;;;4.52;100.00
23229;BME280;11783;50.350;6.576;2024-02-26T07:41:53;94375.88;;;4.77;100.00
23229;BME280;11783;50.350;6.576;2024-02-26T07:44:19;94375.09;;;4.81;100.00
23229;BME280;11783;50.350;6.576;2024-02-26T07:46:44;94375.97;;;4.87;100.00
23229;BME280;11783;50.350;6.576;2024-02-26T07:49:10;94376.91;;;4.76;100.00
23229;BME280;11783;50.350;6.576;2024-02-26T07:51:35;94379.28;;;4.77;100.00
23229;BME280;11783;50.350;6.576;2024-02-26T07:54:01;94374.25;;;4.71;100.00
23229;BME280;11783;50.350;6.576;2024-02-26T07:56:26;94378.25;;;4.78;100.00
23229;BME280;11783;50.350;6.576;2024-02-26T07:58:51;94390.63;;;4.78;100.00
23229;BME280;11783;50.350;6.576;2024-02-26T08:01:17;94387.72;;;4.79;100.00
23229;BME280;11783;50.350;6.576;2024-02-26T08:03:42;94392.56;;;4.93;100.00
23229;BME280;11783;50.350;6.576;2024-02-26T08:06:08;94397.06;;;4.97;100.00
23229;BME280;11783;50.350;6.576;2024-02-26T08:08:34;94395.47;;;4.91;100.00
23229;BME280;11783;50.350;6.576;2024-02-26T08:10:59;94408.69;;;5.01;100.00
23229;BME280;11783;50.350;6.576;2024-02-26T08:13:24;94406.38;;;5.10;100.00
23229;BME280;11783;50.350;6.576;2024-02-26T08:15:51;94410.09;;;5.14;100.00
23229;BME280;11783;50.350;6.576;2024-02-26T08:18:17;94414.34;;;5.20;100.00
23229;BME280;11783;50.350;6.576;2024-02-26T08:20:42;94423.53;;;5.17;100.00
23229;BME280;11783;50.350;6.576;2024-02-26T08:23:07;94416.25;;;5.30;100.00
23229;BME280;11783;50.350;6.576;2024-02-26T08:25:33;94425.91;;;5.19;100.00
23229;BME280;11783;50.350;6.576;2024-02-26T08:27:58;94430.41;;;5.18;100.00
23229;BME280;11783;50.350;6.576;2024-02-26T08:30:24;94436.50;;;5.24;100.00
23229;BME280;11783;50.350;6.576;2024-02-26T08:32:49;94435.50;;;5.30;100.00
23229;BME280;11783;50.350;6.576;2024-02-26T08:35:15;94435.75;;;5.29;100.00
23229;BME280;11783;50.350;6.576;2024-02-26T08:37:44;94432.84;;;5.30;100.00
23229;BME280;11783;50.350;6.576;2024-02-26T08:40:10;94442.47;;;5.09;100.00
23229;BME280;11783;50.350;6.576;2024-02-26T08:42:36;94441.94;;;5.12;100.00
23229;BME280;11783;50.350;6.576;2024-02-26T08:45:02;94441.25;;;5.22;100.00
23229;BME280;11783;50.350;6.576;2024-02-26T08:47:28;94448.41;;;5.32;100.00
23229;BME280;11783;50.350;6.576;2024-02-26T08:49:53;94446.06;;;5.35;100.00
23229;BME280;11783;50.350;6.576;2024-02-26T08:52:19;94442.72;;;5.50;100.00
23229;BME280;11783;50.350;6.576;2024-02-26T08:54:44;94447.16;;;5.39;100.00
23229;BME280;11783;50.350;6.576;2024-02-26T08:57:09;94454.06;;;5.51;100.00
23229;BME280;11783;50.350;6.576;2024-02-26T08:59:35;94455.13;;;5.55;100.00
23229;BME280;11783;50.350;6.576;2024-02-26T09:02:00;94453.34;;;5.60;100.00
23229;BME280;11783;50.350;6.576;2024-02-26T09:04:25;94457.47;;;5.46;100.00
23229;BME280;11783;50.350;6.576;2024-02-26T09:06:52;94458.53;;;5.50;100.00
23229;BME280;11783;50.350;6.576;2024-02-26T09:09:17;94461.50;;;5.59;100.00
23229;BME280;11783;50.350;6.576;2024-02-26T09:11:43;94463.66;;;5.67;100.00
23229;BME280;11783;50.350;6.576;2024-02-26T09:14:08;94465.50;;;5.71;100.00
23229;BME280;11783;50.350;6.576;2024-02-26T09:16:34;94463.88;;;5.60;100.00
23229;BME280;11783;50.350;6.576;2024-02-26T09:18:59;94467.34;;;5.66;100.00
23229;BME280;11783;50.350;6.576;2024-02-26T09:21:24;94465.75;;;5.65;100.00
23229;BME280;11783;50.350;6.576;2024-02-26T09:23:53;94467.38;;;5.76;100.00
23229;BME280;11783;50.350;6.576;2024-02-26T09:26:19;94465.00;;;5.74;100.00
23229;BME280;11783;50.350;6.576;2024-02-26T09:28:44;94471.56;;;5.72;100.00
23229;BME280;11783;50.350;6.576;2024-02-26T09:31:10;94470.06;;;5.86;100.00
23229;BME280;11783;50.350;6.576;2024-02-26T09:33:35;94482.78;;;5.94;100.00
23229;BME280;11783;50.350;6.576;2024-02-26T09:36:00;94485.75;;;6.03;100.00
23229;BME280;11783;50.350;6.576;2024-02-26T09:38:27;94483.66;;;6.05;100.00
23229;BME280;11783;50.350;6.576;2024-02-26T09:40:52;94487.59;;;6.07;100.00
23229;BME280;11783;50.350;6.576;2024-02-26T09:43:21;94486.03;;;6.06;100.00
23229;BME280;11783;50.350;6.576;2024-02-26T09:45:47;94488.72;;;6.17;100.00
23229;BME280;11783;50.350;6.576;2024-02-26T09:48:14;94491.06;;;6.13;100.00
23229;BME280;11783;50.350;6.576;2024-02-26T09:50:43;94498.44;;;6.11;100.00
23229;BME280;11783;50.350;6.576;2024-02-26T09:53:09;94499.81;;;6.19;100.00
23229;BME280;11783;50.350;6.576;2024-02-26T09:55:36;94505.38;;;6.27;100.00
23229;BME280;11783;50.350;6.576;2024-02-26T09:58:04;94510.56;;;6.12;100.00
23229;BME280;11783;50.350;6.576;2024-02-26T10:00:30;94515.13;;;6.27;100.00
23229;BME280;11783;50.350;6.576;2024-02-26T10:03:03;94531.53;;;6.34;100.00
23229;BME280;11783;50.350;6.576;2024-02-26T10:05:30;94519.59;;;6.26;100.00
23229;BME280;11783;50.350;6.576;2024-02-26T10:07:57;94524.09;;;6.26;100.00
23229;BME280;11783;50.350;6.576;2024-02-26T10:10:23;94519.78;;;6.10;100.00
23229;BME280;11783;50.350;6.576;2024-02-26T10:12:49;94519.59;;;6.26;100.00
23229;BME280;11783;50.350;6.576;2024-02-26T10:15:14;94528.91;;;6.39;100.00
23229;BME280;11783;50.350;6.576;2024-02-26T10:17:40;94528.06;;;6.28;100.00
23229;BME280;11783;50.350;6.576;2024-02-26T10:20:17;94533.31;;;6.18;100.00
23229;BME280;11783;50.350;6.576;2024-02-26T10:22:53;94542.31;;;6.27;100.00
23229;BME280;11783;50.350;6.576;2024-02-26T10:25:18;94541.03;;;6.40;100.00
23229;BME280;11783;50.350;6.576;2024-02-26T10:27:45;94544.69;;;6.29;100.00
23229;BME280;11783;50.350;6.576;2024-02-26T10:30:18;94546.59;;;6.38;100.00
23229;BME280;11783;50.350;6.576;2024-02-26T10:32:45;94550.34;;;6.53;100.00
23229;BME280;11783;50.350;6.576;2024-02-26T10:35:12;94551.09;;;6.43;100.00
23229;BME280;11783;50.350;6.576;2024-02-26T10:37:39;94564.06;;;6.55;100.00
23229;BME280;11783;50.350;6.576;2024-02-26T10:40:06;94568.31;;;6.66;100.00
23229;BME280;11783;50.350;6.576;2024-02-26T10:42:31;94559.13;;;6.74;100.00
23229;BME280;11783;50.350;6.576;2024-02-26T10:44:58;94564.16;;;6.85;100.00
23229;BME280;11783;50.350;6.576;2024-02-26T10:47:24;94562.56;;;6.84;100.00
23229;BME280;11783;50.350;6.576;2024-02-26T10:49:50;94571.59;;;6.93;100.00
23229;BME280;11783;50.350;6.576;2024-02-26T10:52:18;94574.75;;;6.90;100.00
23229;BME280;11783;50.350;6.576;2024-02-26T10:54:47;94573.41;;;6.83;100.00
23229;BME280;11783;50.350;6.576;2024-02-26T10:57:13;94582.94;;;6.94;100.00
23229;BME280;11783;50.350;6.576;2024-02-26T10:59:39;94592.47;;;6.95;100.00
23229;BME280;11783;50.350;6.576;2024-02-26T11:02:07;94595.34;;;6.93;100.00
23229;BME280;11783;50.350;6.576;2024-02-26T11:04:34;94600.13;;;7.02;100.00
23229;BME280;11783;50.350;6.576;2024-02-26T11:07:00;94603.31;;;7.04;100.00
23229;BME280;11783;50.350;6.576;2024-02-26T11:09:27;94604.63;;;7.06;100.00
23229;BME280;11783;50.350;6.576;2024-02-26T11:11:53;94597.00;;;7.20;100.00
23229;BME280;11783;50.350;6.576;2024-02-26T11:14:44;94607.56;;;7.25;100.00
23229;BME280;11783;50.350;6.576;2024-02-26T11:17:11;94600.22;;;7.27;100.00
23229;BME280;11783;50.350;6.576;2024-02-26T11:19:38;94597.56;;;7.27;100.00
23229;BME280;11783;50.350;6.576;2024-02-26T11:22:04;94603.34;;;7.24;100.00
23229;BME280;11783;50.350;6.576;2024-02-26T11:24:30;94599.69;;;7.40;100.00
23229;BME280;11783;50.350;6.576;2024-02-26T11:26:59;94602.09;;;7.47;100.00
23229;BME280;11783;50.350;6.576;2024-02-26T11:29:33;94598.38;;;7.48;100.00
23229;BME280;11783;50.350;6.576;2024-02-26T11:32:00;94592.50;;;7.20;100.00
23229;BME280;11783;50.350;6.576;2024-02-26T11:34:26;94588.53;;;7.18;100.00
23229;BME280;11783;50.350;6.576;2024-02-26T11:36:52;94595.97;;;7.41;100.00
23229;BME280;11783;50.350;6.576;2024-02-26T11:39:18;94591.72;;;7.20;100.00
23229;BME280;11783;50.350;6.576;2024-02-26T11:41:44;94582.00;;;7.51;100.00
23229;BME280;11783;50.350;6.576;2024-02-26T11:44:10;94590.47;;;7.68;100.00
23229;BME280;11783;50.350;6.576;2024-02-26T11:46:40;94593.63;;;7.75;100.00
23229;BME280;11783;50.350;6.576;2024-02-26T11:51:54;94590.97;;;7.96;100.00
23229;BME280;11783;50.350;6.576;2024-02-26T11:57:22;94610.00;;;7.77;100.00
23229;BME280;11783;50.350;6.576;2024-02-26T11:59:48;94611.59;;;7.94;100.00
23229;BME280;11783;50.350;6.576;2024-02-26T12:02:39;94619.53;;;8.04;100.00
23229;BME280;11783;50.350;6.576;2024-02-26T12:05:14;94629.31;;;8.08;100.00
23229;BME280;11783;50.350;6.576;2024-02-26T12:07:46;94631.69;;;8.10;100.00
23229;BME280;11783;50.350;6.576;2024-02-26T12:10:31;94633.81;;;8.08;100.00
23229;BME280;11783;50.350;6.576;2024-02-26T12:13:16;94644.38;;;8.18;100.00
23229;BME280;11783;50.350;6.576;2024-02-26T12:15:42;94645.72;;;8.20;100.00
23229;BME280;11783;50.350;6.576;2024-02-26T12:18:10;94653.91;;;8.14;100.00
23229;BME280;11783;50.350;6.576;2024-02-26T12:20:36;94650.22;;;8.15;100.00
23229;BME280;11783;50.350;6.576;2024-02-26T12:23:03;94649.16;;;8.06;100.00
23229;BME280;11783;50.350;6.576;2024-02-26T12:25:32;94651.00;;;8.10;100.00
23229;BME280;11783;50.350;6.576;2024-02-26T12:27:58;94656.03;;;8.12;100.00
23229;BME280;11783;50.350;6.576;2024-02-26T12:30:24;94650.75;;;8.17;100.00
23229;BME280;11783;50.350;6.576;2024-02-26T12:32:55;94652.59;;;8.22;100.00
23229;BME280;11783;50.350;6.576;2024-02-26T12:35:25;94656.81;;;8.17;100.00
23229;BME280;11783;50.350;6.576;2024-02-26T12:37:55;94653.94;;;8.19;100.00
23229;BME280;11783;50.350;6.576;2024-02-26T12:40:20;94656.84;;;8.12;100.00
23229;BME280;11783;50.350;6.576;2024-02-26T12:42:46;94658.16;;;8.10;100.00
23229;BME280;11783;50.350;6.576;2024-02-26T12:45:13;94662.66;;;8.09;100.00
23229;BME280;11783;50.350;6.576;2024-02-26T12:47:43;94664.78;;;8.12;100.00
23229;BME280;11783;50.350;6.576;2024-02-26T12:50:10;94678.78;;;8.13;100.00
23229;BME280;11783;50.350;6.576;2024-02-26T12:52:39;94691.50;;;8.16;100.00
23229;BME280;11783;50.350;6.576;2024-02-26T12:55:05;94686.47;;;7.99;100.00
23229;BME280;11783;50.350;6.576;2024-02-26T12:57:35;94689.66;;;8.11;100.00
23229;BME280;11783;50.350;6.576;2024-02-26T13:00:03;94696.50;;;8.17;100.00